Aviation Digital Data Service (ADDS)

Output produced by METARs form (1349 UTC 19 April 2018)
found at http://aviationweather.gov/adds/metars/
 
KPNE 191127Z 1912/2012 05010KT P6SM OVC045 
     FM191400 36010G18KT P6SM OVC025 
     FM191700 32010G18KT P6SM -SHRA OVC025 
     FM192100 31014G22KT P6SM BKN045 
     FM200200 31012G20KT P6SM SCT045